sensor_id;sensor_type;location;lat;lon;timestamp;pressure;altitude;pressure_sealevel;temperature;humidity
30516;BME280;17297;54.022;10.760;2022-07-29T00:00:34;102073.06;;;18.20;57.75
30516;BME280;17297;54.022;10.760;2022-07-29T00:02:59;102073.06;;;18.20;57.85
30516;BME280;17297;54.022;10.760;2022-07-29T00:05:25;102073.06;;;18.20;58.07
30516;BME280;17297;54.022;10.760;2022-07-29T00:07:50;102068.66;;;18.19;58.24
30516;BME280;17297;54.022;10.760;2022-07-29T00:10:15;102066.78;;;18.19;58.31
30516;BME280;17297;54.022;10.760;2022-07-29T00:12:41;102056.72;;;18.20;58.15
30516;BME280;17297;54.022;10.760;2022-07-29T00:15:07;102066.56;;;18.21;58.19
30516;BME280;17297;54.022;10.760;2022-07-29T00:17:32;102074.97;;;18.19;58.38
30516;BME280;17297;54.022;10.760;2022-07-29T00:19:59;102061.53;;;18.18;58.57
30516;BME280;17297;54.022;10.760;2022-07-29T00:22:24;102070.53;;;18.18;58.44
30516;BME280;17297;54.022;10.760;2022-07-29T00:24:50;102062.38;;;18.18;58.40
30516;BME280;17297;54.022;10.760;2022-07-29T00:27:16;102068.88;;;18.17;58.38
30516;BME280;17297;54.022;10.760;2022-07-29T00:29:41;102061.75;;;18.16;58.17
30516;BME280;17297;54.022;10.760;2022-07-29T00:32:06;102068.88;;;18.17;58.18
30516;BME280;17297;54.022;10.760;2022-07-29T00:34:32;102064.50;;;18.16;58.29
30516;BME280;17297;54.022;10.760;2022-07-29T00:37:16;102061.75;;;18.16;58.00
30516;BME280;17297;54.022;10.760;2022-07-29T00:39:42;102052.72;;;18.16;58.09
30516;BME280;17297;54.022;10.760;2022-07-29T00:42:07;102058.41;;;18.14;58.28
30516;BME280;17297;54.022;10.760;2022-07-29T00:44:40;102065.53;;;18.15;58.12
30516;BME280;17297;54.022;10.760;2022-07-29T00:47:06;102058.19;;;18.16;58.36
30516;BME280;17297;54.022;10.760;2022-07-29T00:49:33;102063.44;;;18.17;58.14
30516;BME280;17297;54.022;10.760;2022-07-29T00:52:01;102059.44;;;18.20;58.22
30516;BME280;17297;54.022;10.760;2022-07-29T00:54:27;102063.84;;;18.21;58.01
30516;BME280;17297;54.022;10.760;2022-07-29T00:56:55;102061.13;;;18.21;58.03
30516;BME280;17297;54.022;10.760;2022-07-29T00:59:21;102061.13;;;18.21;57.72
30516;BME280;17297;54.022;10.760;2022-07-29T01:01:46;102063.84;;;18.21;57.54
30516;BME280;17297;54.022;10.760;2022-07-29T01:04:12;102068.47;;;18.20;57.65
30516;BME280;17297;54.022;10.760;2022-07-29T01:06:37;102068.47;;;18.20;57.73
30516;BME280;17297;54.022;10.760;2022-07-29T01:09:03;102064.91;;;18.20;57.46
30516;BME280;17297;54.022;10.760;2022-07-29T01:11:28;102059.44;;;18.20;57.66
30516;BME280;17297;54.022;10.760;2022-07-29T01:13:56;102064.06;;;18.19;57.51
30516;BME280;17297;54.022;10.760;2022-07-29T01:16:27;102063.22;;;18.19;57.72
30516;BME280;17297;54.022;10.760;2022-07-29T01:19:00;102062.38;;;18.18;57.39
30516;BME280;17297;54.022;10.760;2022-07-29T01:21:46;102063.22;;;18.19;57.49
30516;BME280;17297;54.022;10.760;2022-07-29T01:24:42;102055.47;;;18.22;57.63
30516;BME280;17297;54.022;10.760;2022-07-29T01:29:55;102048.13;;;18.23;57.63
30516;BME280;17297;54.022;10.760;2022-07-29T01:32:25;102050.84;;;18.23;57.60
30516;BME280;17297;54.022;10.760;2022-07-29T01:34:55;102050.84;;;18.23;57.79
30516;BME280;17297;54.022;10.760;2022-07-29T01:37:32;102052.75;;;18.22;58.03
30516;BME280;17297;54.022;10.760;2022-07-29T01:40:03;102050.03;;;18.22;58.19
30516;BME280;17297;54.022;10.760;2022-07-29T01:42:35;102051.06;;;18.21;58.04
30516;BME280;17297;54.022;10.760;2022-07-29T01:47:52;102045.19;;;18.18;57.97
30516;BME280;17297;54.022;10.760;2022-07-29T01:50:20;102039.97;;;18.16;57.97
30516;BME280;17297;54.022;10.760;2022-07-29T01:53:04;102037.69;;;18.13;58.19
30516;BME280;17297;54.022;10.760;2022-07-29T01:55:34;102033.50;;;18.11;58.30
30516;BME280;17297;54.022;10.760;2022-07-29T01:58:01;102036.41;;;18.09;58.32
30516;BME280;17297;54.022;10.760;2022-07-29T02:00:29;102030.38;;;18.07;58.28
30516;BME280;17297;54.022;10.760;2022-07-29T02:02:58;102040.63;;;18.05;58.41
30516;BME280;17297;54.022;10.760;2022-07-29T02:05:27;102032.88;;;18.02;58.37
30516;BME280;17297;54.022;10.760;2022-07-29T02:07:55;102027.63;;;18.00;58.14
30516;BME280;17297;54.022;10.760;2022-07-29T02:10:26;102024.50;;;17.97;58.15
30516;BME280;17297;54.022;10.760;2022-07-29T02:12:54;102017.59;;;17.94;58.16
30516;BME280;17297;54.022;10.760;2022-07-29T02:15:22;102016.13;;;17.92;57.97
30516;BME280;17297;54.022;10.760;2022-07-29T02:17:55;102022.00;;;17.89;58.19
30516;BME280;17297;54.022;10.760;2022-07-29T02:20:22;102023.03;;;17.88;58.27
30516;BME280;17297;54.022;10.760;2022-07-29T02:22:52;102019.69;;;17.86;58.29
30516;BME280;17297;54.022;10.760;2022-07-29T02:25:19;102015.50;;;17.83;58.20
30516;BME280;17297;54.022;10.760;2022-07-29T02:27:46;102014.88;;;17.81;58.21
30516;BME280;17297;54.022;10.760;2022-07-29T02:30:13;102021.38;;;17.80;58.10
30516;BME280;17297;54.022;10.760;2022-07-29T02:32:39;102016.50;;;17.75;58.13
30516;BME280;17297;54.022;10.760;2022-07-29T02:35:08;102018.63;;;17.73;58.22
30516;BME280;17297;54.022;10.760;2022-07-29T02:37:35;102011.72;;;17.71;58.12
30516;BME280;17297;54.022;10.760;2022-07-29T02:40:01;102012.97;;;17.68;58.17
30516;BME280;17297;54.022;10.760;2022-07-29T02:42:27;102007.94;;;17.65;58.34
30516;BME280;17297;54.022;10.760;2022-07-29T02:44:53;102007.09;;;17.65;58.39
30516;BME280;17297;54.022;10.760;2022-07-29T02:47:23;102000.63;;;17.59;58.20
30516;BME280;17297;54.022;10.760;2022-07-29T02:50:00;101994.75;;;17.55;58.23
30516;BME280;17297;54.022;10.760;2022-07-29T02:55:38;101995.19;;;17.52;58.26
30516;BME280;17297;54.022;10.760;2022-07-29T02:58:13;102006.47;;;17.49;58.34
30516;BME280;17297;54.022;10.760;2022-07-29T03:00:40;101997.47;;;17.49;58.26
30516;BME280;17297;54.022;10.760;2022-07-29T03:03:12;101996.66;;;17.48;58.52
30516;BME280;17297;54.022;10.760;2022-07-29T03:05:38;101998.72;;;17.46;58.42
30516;BME280;17297;54.022;10.760;2022-07-29T03:08:05;102000.63;;;17.46;58.50
30516;BME280;17297;54.022;10.760;2022-07-29T03:10:32;101998.94;;;17.45;58.45
30516;BME280;17297;54.022;10.760;2022-07-29T03:12:58;102001.22;;;17.41;58.50
30516;BME280;17297;54.022;10.760;2022-07-29T03:15:25;101999.56;;;17.40;58.42
30516;BME280;17297;54.022;10.760;2022-07-29T03:17:53;102000.38;;;17.41;58.39
30516;BME280;17297;54.022;10.760;2022-07-29T03:20:19;101997.25;;;17.44;58.54
30516;BME280;17297;54.022;10.760;2022-07-29T03:22:45;101999.38;;;17.48;58.68
30516;BME280;17297;54.022;10.760;2022-07-29T03:25:16;102002.09;;;17.55;58.65
30516;BME280;17297;54.022;10.760;2022-07-29T03:27:42;101996.88;;;17.60;58.59
30516;BME280;17297;54.022;10.760;2022-07-29T03:30:08;102002.31;;;17.67;58.56
30516;BME280;17297;54.022;10.760;2022-07-29T03:32:34;101993.31;;;17.73;58.45
30516;BME280;17297;54.022;10.760;2022-07-29T03:35:00;101997.94;;;17.79;58.20
30516;BME280;17297;54.022;10.760;2022-07-29T03:37:26;101996.22;;;17.85;58.51
30516;BME280;17297;54.022;10.760;2022-07-29T03:39:52;101997.50;;;17.89;58.72
30516;BME280;17297;54.022;10.760;2022-07-29T03:42:21;101985.97;;;17.93;59.06
30516;BME280;17297;54.022;10.760;2022-07-29T03:44:49;101987.44;;;17.96;58.82
30516;BME280;17297;54.022;10.760;2022-07-29T03:47:17;101985.94;;;18.00;59.78
30516;BME280;17297;54.022;10.760;2022-07-29T03:49:46;101988.25;;;18.03;59.68
30516;BME280;17297;54.022;10.760;2022-07-29T03:52:13;101995.16;;;18.06;59.63
30516;BME280;17297;54.022;10.760;2022-07-29T03:54:39;101995.16;;;18.06;59.30
30516;BME280;17297;54.022;10.760;2022-07-29T03:57:05;101990.53;;;18.06;59.75
30516;BME280;17297;54.022;10.760;2022-07-29T03:59:32;101993.06;;;18.08;60.20
30516;BME280;17297;54.022;10.760;2022-07-29T04:02:00;101993.06;;;18.08;60.30
30516;BME280;17297;54.022;10.760;2022-07-29T04:04:27;101993.91;;;18.08;60.30
30516;BME280;17297;54.022;10.760;2022-07-29T04:06:52;101993.06;;;18.08;60.32
30516;BME280;17297;54.022;10.760;2022-07-29T04:09:17;101993.91;;;18.08;60.58
30516;BME280;17297;54.022;10.760;2022-07-29T04:11:43;101993.91;;;18.08;60.38
30516;BME280;17297;54.022;10.760;2022-07-29T04:14:10;101994.72;;;18.09;60.22
30516;BME280;17297;54.022;10.760;2022-07-29T04:16:35;102001.00;;;18.09;60.35
30516;BME280;17297;54.022;10.760;2022-07-29T04:19:00;101996.41;;;18.10;60.61
30516;BME280;17297;54.022;10.760;2022-07-29T04:21:26;101995.16;;;18.12;60.75
30516;BME280;17297;54.022;10.760;2022-07-29T04:23:51;101994.94;;;18.14;60.38
30516;BME280;17297;54.022;10.760;2022-07-29T04:26:17;102000.38;;;18.14;60.25
30516;BME280;17297;54.022;10.760;2022-07-29T04:28:43;101993.88;;;18.15;59.85
30516;BME280;17297;54.022;10.760;2022-07-29T04:31:10;101990.97;;;18.16;60.26
30516;BME280;17297;54.022;10.760;2022-07-29T04:33:36;101995.13;;;18.19;60.16
30516;BME280;17297;54.022;10.760;2022-07-29T04:36:01;101993.88;;;18.21;60.41
30516;BME280;17297;54.022;10.760;2022-07-29T04:38:26;101992.59;;;18.24;60.28
30516;BME280;17297;54.022;10.760;2022-07-29T04:40:52;101995.13;;;18.26;60.22
30516;BME280;17297;54.022;10.760;2022-07-29T04:43:17;101993.00;;;18.28;60.07
30516;BME280;17297;54.022;10.760;2022-07-29T04:45:42;101986.31;;;18.30;60.04
30516;BME280;17297;54.022;10.760;2022-07-29T04:48:08;101991.09;;;18.35;60.39
30516;BME280;17297;54.022;10.760;2022-07-29T04:50:33;101987.34;;;18.36;60.65
30516;BME280;17297;54.022;10.760;2022-07-29T04:52:59;101983.34;;;18.38;60.61
30516;BME280;17297;54.022;10.760;2022-07-29T04:55:24;101986.69;;;18.40;60.89
30516;BME280;17297;54.022;10.760;2022-07-29T04:57:50;101985.66;;;18.41;60.87
30516;BME280;17297;54.022;10.760;2022-07-29T05:00:16;101984.59;;;18.42;60.71
30516;BME280;17297;54.022;10.760;2022-07-29T05:02:41;101984.34;;;18.44;60.44
30516;BME280;17297;54.022;10.760;2022-07-29T05:05:07;101983.31;;;18.45;60.28
30516;BME280;17297;54.022;10.760;2022-07-29T05:07:32;101981.19;;;18.47;60.08
30516;BME280;17297;54.022;10.760;2022-07-29T05:09:58;101990.84;;;18.50;60.17
30516;BME280;17297;54.022;10.760;2022-07-29T05:12:24;101986.66;;;18.54;59.82
30516;BME280;17297;54.022;10.760;2022-07-29T05:14:49;101989.78;;;18.57;59.72
30516;BME280;17297;54.022;10.760;2022-07-29T05:17:15;101987.22;;;18.62;59.32
30516;BME280;17297;54.022;10.760;2022-07-29T05:19:40;101992.19;;;18.72;59.59
30516;BME280;17297;54.022;10.760;2022-07-29T05:22:05;101987.38;;;18.81;59.46
30516;BME280;17297;54.022;10.760;2022-07-29T05:24:31;101992.78;;;18.94;58.99
30516;BME280;17297;54.022;10.760;2022-07-29T05:26:56;101987.28;;;19.01;59.28
30516;BME280;17297;54.022;10.760;2022-07-29T05:29:21;101985.16;;;19.03;59.09
30516;BME280;17297;54.022;10.760;2022-07-29T05:31:47;101978.03;;;19.02;58.95
30516;BME280;17297;54.022;10.760;2022-07-29T05:34:12;101983.25;;;19.10;59.19
30516;BME280;17297;54.022;10.760;2022-07-29T05:36:37;101975.41;;;19.20;59.02
30516;BME280;17297;54.022;10.760;2022-07-29T05:39:03;101979.34;;;19.24;58.51
30516;BME280;17297;54.022;10.760;2022-07-29T05:41:31;101987.53;;;19.24;57.99
30516;BME280;17297;54.022;10.760;2022-07-29T05:43:57;101984.22;;;19.22;58.09
30516;BME280;17297;54.022;10.760;2022-07-29T05:46:23;101982.31;;;19.23;58.48
30516;BME280;17297;54.022;10.760;2022-07-29T05:48:48;101985.88;;;19.23;58.72
30516;BME280;17297;54.022;10.760;2022-07-29T05:51:14;101987.31;;;19.26;58.74
30516;BME280;17297;54.022;10.760;2022-07-29T05:53:39;101985.81;;;19.30;58.63
30516;BME280;17297;54.022;10.760;2022-07-29T05:56:04;101993.75;;;19.31;58.34
30516;BME280;17297;54.022;10.760;2022-07-29T05:58:30;101990.00;;;19.32;58.55
30516;BME280;17297;54.022;10.760;2022-07-29T06:00:55;101985.13;;;19.34;58.78
30516;BME280;17297;54.022;10.760;2022-07-29T06:03:24;101991.22;;;19.36;58.63
30516;BME280;17297;54.022;10.760;2022-07-29T06:05:50;101985.56;;;19.38;58.24
30516;BME280;17297;54.022;10.760;2022-07-29T06:08:15;101990.56;;;19.41;58.51
30516;BME280;17297;54.022;10.760;2022-07-29T06:10:40;101987.16;;;19.46;58.44
30516;BME280;17297;54.022;10.760;2022-07-29T06:13:06;101993.25;;;19.48;58.28
30516;BME280;17297;54.022;10.760;2022-07-29T06:15:31;101993.63;;;19.51;58.32
30516;BME280;17297;54.022;10.760;2022-07-29T06:17:57;101983.09;;;19.55;58.86
30516;BME280;17297;54.022;10.760;2022-07-29T06:20:22;101990.00;;;19.57;58.45
30516;BME280;17297;54.022;10.760;2022-07-29T06:22:47;101990.19;;;19.63;58.40
30516;BME280;17297;54.022;10.760;2022-07-29T06:25:13;101997.09;;;19.65;58.15
30516;BME280;17297;54.022;10.760;2022-07-29T06:27:41;101994.16;;;19.67;58.80
30516;BME280;17297;54.022;10.760;2022-07-29T06:30:07;102004.41;;;19.71;58.90
30516;BME280;17297;54.022;10.760;2022-07-29T06:32:33;101995.75;;;19.74;59.26
30516;BME280;17297;54.022;10.760;2022-07-29T06:34:59;101994.72;;;19.75;58.86
30516;BME280;17297;54.022;10.760;2022-07-29T06:37:24;102001.84;;;19.76;58.84
30516;BME280;17297;54.022;10.760;2022-07-29T06:39:49;102000.19;;;19.75;58.39
30516;BME280;17297;54.022;10.760;2022-07-29T06:42:35;102006.25;;;19.77;58.83
30516;BME280;17297;54.022;10.760;2022-07-29T06:45:00;101997.22;;;19.77;58.56
30516;BME280;17297;54.022;10.760;2022-07-29T06:47:26;102003.50;;;19.77;58.82
30516;BME280;17297;54.022;10.760;2022-07-29T06:49:51;102012.25;;;19.86;58.08
30516;BME280;17297;54.022;10.760;2022-07-29T06:52:16;102010.31;;;20.12;57.73
30516;BME280;17297;54.022;10.760;2022-07-29T06:54:42;102006.78;;;20.29;57.02
30516;BME280;17297;54.022;10.760;2022-07-29T06:57:13;102006.09;;;20.52;57.02
30516;BME280;17297;54.022;10.760;2022-07-29T06:59:38;102002.81;;;20.81;55.94
30516;BME280;17297;54.022;10.760;2022-07-29T07:02:03;101998.00;;;20.94;56.09
30516;BME280;17297;54.022;10.760;2022-07-29T07:04:29;101999.81;;;21.01;55.55
30516;BME280;17297;54.022;10.760;2022-07-29T07:06:54;101995.38;;;20.99;55.42
30516;BME280;17297;54.022;10.760;2022-07-29T07:09:20;101994.19;;;20.95;55.92
30516;BME280;17297;54.022;10.760;2022-07-29T07:11:46;101989.78;;;20.94;55.91
30516;BME280;17297;54.022;10.760;2022-07-29T07:14:11;101989.56;;;20.96;55.34
30516;BME280;17297;54.022;10.760;2022-07-29T07:16:36;101982.41;;;20.95;55.70
30516;BME280;17297;54.022;10.760;2022-07-29T07:19:02;101978.25;;;20.92;55.78
30516;BME280;17297;54.022;10.760;2022-07-29T07:21:28;101988.19;;;20.87;56.08
30516;BME280;17297;54.022;10.760;2022-07-29T07:23:53;101986.84;;;20.77;56.13
30516;BME280;17297;54.022;10.760;2022-07-29T07:26:19;101996.44;;;20.68;56.17
30516;BME280;17297;54.022;10.760;2022-07-29T07:28:44;101992.38;;;20.59;56.71
30516;BME280;17297;54.022;10.760;2022-07-29T07:31:10;101992.44;;;20.52;56.53
30516;BME280;17297;54.022;10.760;2022-07-29T07:33:35;101984.91;;;20.48;57.14
30516;BME280;17297;54.022;10.760;2022-07-29T07:36:01;101985.38;;;20.45;57.29
30516;BME280;17297;54.022;10.760;2022-07-29T07:38:26;101982.84;;;20.43;57.51
30516;BME280;17297;54.022;10.760;2022-07-29T07:40:51;101992.50;;;20.46;57.59
30516;BME280;17297;54.022;10.760;2022-07-29T07:43:17;101989.75;;;20.46;57.61
30516;BME280;17297;54.022;10.760;2022-07-29T07:45:42;101983.25;;;20.47;57.55
30516;BME280;17297;54.022;10.760;2022-07-29T07:48:07;101992.66;;;20.51;58.09
30516;BME280;17297;54.022;10.760;2022-07-29T07:50:35;101982.38;;;20.53;58.18
30516;BME280;17297;54.022;10.760;2022-07-29T07:53:01;101980.22;;;20.55;57.77
30516;BME280;17297;54.022;10.760;2022-07-29T07:55:27;101979.75;;;20.58;58.41
30516;BME280;17297;54.022;10.760;2022-07-29T07:57:53;101983.09;;;20.60;58.13
30516;BME280;17297;54.022;10.760;2022-07-29T08:00:19;101973.84;;;20.61;58.34
30516;BME280;17297;54.022;10.760;2022-07-29T08:02:45;101979.09;;;20.63;58.49
30516;BME280;17297;54.022;10.760;2022-07-29T08:05:11;101973.63;;;20.63;58.52
30516;BME280;17297;54.022;10.760;2022-07-29T08:07:40;101986.44;;;20.62;58.16
30516;BME280;17297;54.022;10.760;2022-07-29T08:10:06;101974.91;;;20.60;58.03
30516;BME280;17297;54.022;10.760;2022-07-29T08:12:32;101971.56;;;20.58;57.82
30516;BME280;17297;54.022;10.760;2022-07-29T08:14:57;101974.75;;;20.55;58.37
30516;BME280;17297;54.022;10.760;2022-07-29T08:17:23;101968.91;;;20.51;58.36
30516;BME280;17297;54.022;10.760;2022-07-29T08:19:48;101978.97;;;20.51;59.12
30516;BME280;17297;54.022;10.760;2022-07-29T08:22:14;101979.84;;;20.51;59.00
30516;BME280;17297;54.022;10.760;2022-07-29T08:24:40;101971.84;;;20.50;58.39
30516;BME280;17297;54.022;10.760;2022-07-29T08:27:09;101965.78;;;20.48;58.24
30516;BME280;17297;54.022;10.760;2022-07-29T08:29:35;101967.69;;;20.47;58.27
30516;BME280;17297;54.022;10.760;2022-07-29T08:32:00;101970.41;;;20.47;57.84
30516;BME280;17297;54.022;10.760;2022-07-29T08:34:26;101969.59;;;20.47;58.04
30516;BME280;17297;54.022;10.760;2022-07-29T08:36:51;101969.34;;;20.48;58.33
30516;BME280;17297;54.022;10.760;2022-07-29T08:39:17;101972.06;;;20.48;58.62
30516;BME280;17297;54.022;10.760;2022-07-29T08:41:42;101967.00;;;20.52;58.56
30516;BME280;17297;54.022;10.760;2022-07-29T08:44:08;101960.88;;;20.57;58.06
30516;BME280;17297;54.022;10.760;2022-07-29T08:46:37;101969.81;;;20.64;58.59
30516;BME280;17297;54.022;10.760;2022-07-29T08:49:03;101972.69;;;20.69;58.44
30516;BME280;17297;54.022;10.760;2022-07-29T08:51:29;101963.31;;;20.76;59.10
30516;BME280;17297;54.022;10.760;2022-07-29T08:53:55;101966.31;;;20.87;59.54
30516;BME280;17297;54.022;10.760;2022-07-29T08:56:21;101967.44;;;20.97;58.65
30516;BME280;17297;54.022;10.760;2022-07-29T08:58:48;101967.00;;;21.01;58.87
30516;BME280;17297;54.022;10.760;2022-07-29T09:01:16;101963.41;;;21.00;58.43
30516;BME280;17297;54.022;10.760;2022-07-29T09:03:43;101960.81;;;21.05;58.56
30516;BME280;17297;54.022;10.760;2022-07-29T09:06:13;101964.50;;;21.11;58.91
30516;BME280;17297;54.022;10.760;2022-07-29T09:08:38;101958.94;;;21.17;59.14
30516;BME280;17297;54.022;10.760;2022-07-29T09:11:04;101966.31;;;21.17;58.36
30516;BME280;17297;54.022;10.760;2022-07-29T09:13:29;101950.97;;;21.16;58.36
30516;BME280;17297;54.022;10.760;2022-07-29T09:15:54;101964.88;;;21.14;58.46
30516;BME280;17297;54.022;10.760;2022-07-29T09:18:40;101957.97;;;21.12;58.49
30516;BME280;17297;54.022;10.760;2022-07-29T09:21:08;101958.81;;;21.12;58.08
30516;BME280;17297;54.022;10.760;2022-07-29T09:24:12;101957.38;;;21.10;58.74
30516;BME280;17297;54.022;10.760;2022-07-29T09:26:44;101955.47;;;21.10;58.58
30516;BME280;17297;54.022;10.760;2022-07-29T09:29:27;101956.03;;;21.01;58.78
30516;BME280;17297;54.022;10.760;2022-07-29T09:31:54;101953.41;;;20.94;59.17
30516;BME280;17297;54.022;10.760;2022-07-29T09:34:27;101958.53;;;20.90;59.36
30516;BME280;17297;54.022;10.760;2022-07-29T09:36:54;101955.38;;;20.87;59.51
30516;BME280;17297;54.022;10.760;2022-07-29T09:39:34;101954.56;;;20.86;60.01
30516;BME280;17297;54.022;10.760;2022-07-29T09:42:05;101954.47;;;20.93;60.53
30516;BME280;17297;54.022;10.760;2022-07-29T09:44:42;101956.88;;;21.01;59.57
30516;BME280;17297;54.022;10.760;2022-07-29T09:47:08;101955.13;;;21.07;60.09
30516;BME280;17297;54.022;10.760;2022-07-29T09:49:35;101957.38;;;21.10;60.53
30516;BME280;17297;54.022;10.760;2022-07-29T09:52:07;101951.09;;;21.09;59.61
30516;BME280;17297;54.022;10.760;2022-07-29T09:54:34;101959.75;;;21.06;59.67
30516;BME280;17297;54.022;10.760;2022-07-29T09:57:05;101959.50;;;21.08;59.91
30516;BME280;17297;54.022;10.760;2022-07-29T09:59:31;101963.06;;;21.08;59.78
30516;BME280;17297;54.022;10.760;2022-07-29T10:01:56;101957.38;;;21.10;59.48
30516;BME280;17297;54.022;10.760;2022-07-29T10:04:22;101957.97;;;21.12;59.67
30516;BME280;17297;54.022;10.760;2022-07-29T10:07:02;101958.22;;;21.10;59.95
30516;BME280;17297;54.022;10.760;2022-07-29T10:09:29;101957.13;;;21.11;59.06
30516;BME280;17297;54.022;10.760;2022-07-29T10:12:06;101949.06;;;21.16;60.01
30516;BME280;17297;54.022;10.760;2022-07-29T10:14:33;101944.56;;;21.22;60.18
30516;BME280;17297;54.022;10.760;2022-07-29T10:16:59;101955.41;;;21.29;60.38
30516;BME280;17297;54.022;10.760;2022-07-29T10:19:29;101950.88;;;21.34;60.21
30516;BME280;17297;54.022;10.760;2022-07-29T10:21:57;101937.81;;;21.36;59.70
30516;BME280;17297;54.022;10.760;2022-07-29T10:24:26;101944.72;;;21.39;60.00
30516;BME280;17297;54.022;10.760;2022-07-29T10:26:53;101943.91;;;21.38;59.37
30516;BME280;17297;54.022;10.760;2022-07-29T10:29:19;101944.97;;;21.37;59.92
30516;BME280;17297;54.022;10.760;2022-07-29T10:35:06;101948.06;;;21.41;60.21
30516;BME280;17297;54.022;10.760;2022-07-29T10:40:49;101931.66;;;21.41;60.46
30516;BME280;17297;54.022;10.760;2022-07-29T10:43:40;101932.78;;;21.33;59.77
30516;BME280;17297;54.022;10.760;2022-07-29T10:46:07;101927.19;;;21.28;60.42
30516;BME280;17297;54.022;10.760;2022-07-29T10:48:34;101931.00;;;21.27;60.55
30516;BME280;17297;54.022;10.760;2022-07-29T10:51:02;101925.63;;;21.20;60.67
30516;BME280;17297;54.022;10.760;2022-07-29T10:53:51;101920.88;;;21.16;60.87
30516;BME280;17297;54.022;10.760;2022-07-29T10:56:27;101931.47;;;21.12;61.09
30516;BME280;17297;54.022;10.760;2022-07-29T11:01:43;101930.59;;;21.12;61.47
30516;BME280;17297;54.022;10.760;2022-07-29T11:04:08;101931.69;;;21.11;61.01
30516;BME280;17297;54.022;10.760;2022-07-29T11:09:27;101924.31;;;21.11;61.26
30516;BME280;17297;54.022;10.760;2022-07-29T11:11:56;101929.19;;;21.09;61.05
30516;BME280;17297;54.022;10.760;2022-07-29T11:17:18;101926.94;;;21.18;61.21
30516;BME280;17297;54.022;10.760;2022-07-29T11:19:44;101926.84;;;21.25;61.03
30516;BME280;17297;54.022;10.760;2022-07-29T11:22:10;101922.91;;;21.32;61.53
30516;BME280;17297;54.022;10.760;2022-07-29T11:24:37;101919.94;;;21.34;61.21
30516;BME280;17297;54.022;10.760;2022-07-29T11:27:07;101927.69;;;21.37;60.89
30516;BME280;17297;54.022;10.760;2022-07-29T11:29:35;101928.78;;;21.36;60.61
30516;BME280;17297;54.022;10.760;2022-07-29T11:32:14;101930.44;;;21.37;61.52
30516;BME280;17297;54.022;10.760;2022-07-29T11:34:41;101923.09;;;21.37;61.36
30516;BME280;17297;54.022;10.760;2022-07-29T11:39:37;101930.22;;;21.38;62.00
30516;BME280;17297;54.022;10.760;2022-07-29T11:47:28;101922.47;;;21.35;62.01
30516;BME280;17297;54.022;10.760;2022-07-29T11:49:55;101914.72;;;21.32;61.59
30516;BME280;17297;54.022;10.760;2022-07-29T11:52:22;101920.66;;;21.29;61.72
30516;BME280;17297;54.022;10.760;2022-07-29T11:54:49;101920.66;;;21.29;62.06
30516;BME280;17297;54.022;10.760;2022-07-29T11:57:19;101923.25;;;21.24;62.07
30516;BME280;17297;54.022;10.760;2022-07-29T11:59:47;101919.31;;;21.20;62.77
30516;BME280;17297;54.022;10.760;2022-07-29T12:02:14;101911.38;;;21.18;62.41
30516;BME280;17297;54.022;10.760;2022-07-29T12:04:53;101911.84;;;21.15;62.31
30516;BME280;17297;54.022;10.760;2022-07-29T12:07:30;101907.19;;;21.16;62.85
30516;BME280;17297;54.022;10.760;2022-07-29T12:09:56;101910.41;;;21.13;63.39
30516;BME280;17297;54.022;10.760;2022-07-29T12:12:22;101910.16;;;21.14;63.63
30516;BME280;17297;54.022;10.760;2022-07-29T12:14:48;101905.50;;;21.15;63.53
30516;BME280;17297;54.022;10.760;2022-07-29T12:17:30;101916.69;;;21.13;63.97
30516;BME280;17297;54.022;10.760;2022-07-29T12:19:57;101898.63;;;21.12;64.09
30516;BME280;17297;54.022;10.760;2022-07-29T12:22:28;101900.75;;;21.10;64.26
30516;BME280;17297;54.022;10.760;2022-07-29T12:24:54;101897.88;;;21.05;64.81
30516;BME280;17297;54.022;10.760;2022-07-29T12:27:20;101906.34;;;21.04;64.91
30516;BME280;17297;54.022;10.760;2022-07-29T12:29:59;101896.09;;;20.99;66.00
30516;BME280;17297;54.022;10.760;2022-07-29T12:32:34;101894.66;;;20.96;65.70
30516;BME280;17297;54.022;10.760;2022-07-29T12:35:03;101898.25;;;20.97;65.51
30516;BME280;17297;54.022;10.760;2022-07-29T12:37:30;101902.50;;;20.93;65.82
30516;BME280;17297;54.022;10.760;2022-07-29T12:39:55;101896.19;;;20.92;65.61
30516;BME280;17297;54.022;10.760;2022-07-29T12:42:20;101904.28;;;20.87;65.67
30516;BME280;17297;54.022;10.760;2022-07-29T12:44:47;101891.44;;;20.88;66.34
30516;BME280;17297;54.022;10.760;2022-07-29T12:47:15;101895.84;;;20.89;66.32
30516;BME280;17297;54.022;10.760;2022-07-29T12:49:41;101892.41;;;20.93;66.75
30516;BME280;17297;54.022;10.760;2022-07-29T12:52:26;101892.63;;;20.92;67.08
30516;BME280;17297;54.022;10.760;2022-07-29T12:54:52;101902.50;;;20.93;67.14
30516;BME280;17297;54.022;10.760;2022-07-29T12:57:18;101894.91;;;20.95;66.60
30516;BME280;17297;54.022;10.760;2022-07-29T12:59:43;101894.91;;;20.95;66.77
30516;BME280;17297;54.022;10.760;2022-07-29T13:02:21;101904.19;;;20.94;66.37
30516;BME280;17297;54.022;10.760;2022-07-29T13:04:58;101894.28;;;20.93;66.08
30516;BME280;17297;54.022;10.760;2022-07-29T13:07:28;101900.38;;;20.95;66.78
30516;BME280;17297;54.022;10.760;2022-07-29T13:10:09;101900.84;;;20.92;66.87
30516;BME280;17297;54.022;10.760;2022-07-29T13:12:35;101894.06;;;20.94;66.59
30516;BME280;17297;54.022;10.760;2022-07-29T13:15:12;101897.03;;;20.93;66.73